Time;durP1;ratioP1;P1;durP2;ratioP2;P2;SDS_P1;SDS_P2;PMS_P1;PMS_P2;Temp;Humidity;BMP_temperature;BMP_pressure;BME280_temperature;BME280_humidity;BME280_pressure;Samples;Min_cycle;Max_cycle;Signal;HPM_P1;HPM_P2
2023/06/23 00:00:11;;;;;;;6.23;5.73;;;;;;;;;;5101043;28;20685;-80
2023/06/23 00:02:38;;;;;;;6.57;5.70;;;;;;;;;;5107730;28;20226;-80
2023/06/23 00:05:07;;;;;;;6.57;6.00;;;;;;;;;;5102888;28;20626;-80
2023/06/23 00:07:35;;;;;;;6.20;5.70;;;;;;;;;;5111303;28;20753;-80
2023/06/23 00:10:05;;;;;;;6.73;6.13;;;;;;;;;;5099836;28;20287;-79
2023/06/23 00:12:33;;;;;;;5.57;5.07;;;;;;;;;;5110010;28;20290;-79
2023/06/23 00:15:00;;;;;;;7.77;5.77;;;;;;;;;;5099307;28;20265;-80
2023/06/23 00:17:27;;;;;;;6.43;5.57;;;;;;;;;;5104908;28;20211;-80
2023/06/23 00:19:56;;;;;;;7.10;6.23;;;;;;;;;;5085542;28;20560;-80
2023/06/23 00:22:23;;;;;;;6.90;6.30;;;;;;;;;;5097570;28;20720;-79
2023/06/23 00:24:51;;;;;;;6.17;5.67;;;;;;;;;;5098449;28;20200;-80
2023/06/23 00:27:17;;;;;;;9.40;6.83;;;;;;;;;;5097832;28;20196;-79
2023/06/23 00:29:44;;;;;;;6.97;6.07;;;;;;;;;;5111152;28;20290;-80
2023/06/23 00:32:11;;;;;;;7.00;6.27;;;;;;;;;;5097691;28;20214;-80
2023/06/23 00:34:37;;;;;;;6.87;6.27;;;;;;;;;;5097614;28;20682;-80
2023/06/23 00:37:04;;;;;;;7.40;6.63;;;;;;;;;;5111651;28;20204;-79
2023/06/23 00:39:31;;;;;;;6.20;5.70;;;;;;;;;;5097186;28;20200;-80
2023/06/23 00:42:04;;;;;;;6.63;6.03;;;;;;;;;;5090830;28;20710;-79
2023/06/23 00:44:30;;;;;;;6.70;6.10;;;;;;;;;;5092839;28;20594;-80
2023/06/23 00:46:57;;;;;;;7.67;6.10;;;;;;;;;;5102408;28;20246;-80
2023/06/23 00:49:24;;;;;;;7.60;6.30;;;;;;;;;;5092612;28;20674;-80
2023/06/23 00:51:50;;;;;;;11.67;6.10;;;;;;;;;;5101731;28;20232;-80
2023/06/23 00:54:17;;;;;;;6.53;5.93;;;;;;;;;;5104804;28;20260;-80
2023/06/23 00:56:44;;;;;;;8.10;6.23;;;;;;;;;;5099972;28;20221;-80
2023/06/23 00:59:12;;;;;;;7.30;6.70;;;;;;;;;;5097187;28;20305;-80
2023/06/23 01:01:39;;;;;;;6.90;6.33;;;;;;;;;;5111143;28;20697;-80
2023/06/23 01:04:06;;;;;;;6.07;5.57;;;;;;;;;;5107714;28;20211;-80
2023/06/23 01:06:39;;;;;;;6.73;6.13;;;;;;;;;;5100560;28;20200;-80
2023/06/23 01:09:14;;;;;;;6.77;6.23;;;;;;;;;;5093618;28;20295;-80
2023/06/23 01:11:45;;;;;;;6.93;5.70;;;;;;;;;;5090932;28;20586;-80
2023/06/23 01:14:19;;;;;;;5.97;5.47;;;;;;;;;;5104569;28;20200;-80
2023/06/23 01:16:50;;;;;;;6.57;5.97;;;;;;;;;;5104031;28;20593;-80
2023/06/23 01:19:25;;;;;;;8.10;6.67;;;;;;;;;;5098413;28;20249;-80
2023/06/23 01:22:01;;;;;;;6.70;6.03;;;;;;;;;;5110359;28;20219;-80
2023/06/23 01:24:39;;;;;;;6.13;5.70;;;;;;;;;;5100710;28;20700;-80
2023/06/23 01:27:25;;;;;;;6.80;6.20;;;;;;;;;;5095919;28;20280;-79
2023/06/23 01:29:54;;;;;;;8.07;6.17;;;;;;;;;;5096153;28;20219;-80
2023/06/23 01:32:26;;;;;;;7.53;6.93;;;;;;;;;;5090284;28;20330;-80
2023/06/23 01:34:55;;;;;;;7.23;6.53;;;;;;;;;;5104261;28;20193;-80
2023/06/23 01:37:25;;;;;;;6.60;6.10;;;;;;;;;;5100428;28;20766;-79
2023/06/23 01:39:53;;;;;;;6.10;5.50;;;;;;;;;;5107187;28;20204;-80
2023/06/23 01:42:25;;;;;;;6.63;6.07;;;;;;;;;;5089941;28;20216;-80
2023/06/23 01:44:56;;;;;;;7.00;6.40;;;;;;;;;;5103703;28;20196;-80
2023/06/23 01:47:28;;;;;;;7.17;6.10;;;;;;;;;;5090421;28;20200;-80
2023/06/23 01:49:58;;;;;;;7.40;6.70;;;;;;;;;;5097642;28;20199;-80
2023/06/23 01:52:25;;;;;;;7.50;6.87;;;;;;;;;;5097094;28;20670;-79
2023/06/23 01:54:55;;;;;;;8.87;6.27;;;;;;;;;;5106293;28;20253;-80
2023/06/23 01:57:22;;;;;;;7.97;7.17;;;;;;;;;;5108705;28;20301;-79
2023/06/23 01:59:50;;;;;;;8.17;7.43;;;;;;;;;;5113837;28;20206;-80
2023/06/23 02:02:19;;;;;;;7.80;7.10;;;;;;;;;;5100584;28;20224;-80
2023/06/23 02:04:49;;;;;;;6.87;6.23;;;;;;;;;;5104921;28;20670;-80
2023/06/23 02:07:18;;;;;;;8.03;7.10;;;;;;;;;;5106805;28;20294;-80
2023/06/23 02:09:45;;;;;;;8.23;7.63;;;;;;;;;;5093691;28;20208;-80
2023/06/23 02:12:13;;;;;;;8.13;7.53;;;;;;;;;;5107016;28;20204;-80
2023/06/23 02:14:41;;;;;;;8.43;7.40;;;;;;;;;;5093802;28;20196;-80
2023/06/23 02:17:10;;;;;;;8.00;7.20;;;;;;;;;;5106863;28;20193;-79
2023/06/23 02:19:40;;;;;;;9.63;7.20;;;;;;;;;;5093211;28;20204;-80
2023/06/23 02:22:09;;;;;;;8.03;7.37;;;;;;;;;;5092876;28;20314;-80
2023/06/23 02:24:38;;;;;;;7.50;6.83;;;;;;;;;;5105598;28;20204;-80
2023/06/23 02:27:05;;;;;;;8.00;7.30;;;;;;;;;;5108425;28;20200;-80
2023/06/23 02:29:34;;;;;;;8.93;7.50;;;;;;;;;;5105271;28;20227;-80
2023/06/23 02:32:00;;;;;;;8.50;7.70;;;;;;;;;;5094309;28;20204;-80
2023/06/23 02:34:30;;;;;;;7.93;7.23;;;;;;;;;;5105425;28;20204;-80
2023/06/23 02:37:00;;;;;;;7.63;6.93;;;;;;;;;;5113606;28;20622;-80
2023/06/23 02:39:29;;;;;;;7.17;6.57;;;;;;;;;;5113425;28;20207;-80
2023/06/23 02:41:58;;;;;;;8.67;7.97;;;;;;;;;;5092769;28;20249;-80
2023/06/23 02:44:30;;;;;;;8.67;7.77;;;;;;;;;;5106508;28;20315;-80
2023/06/23 02:46:57;;;;;;;8.07;7.33;;;;;;;;;;5102314;28;20260;-80
2023/06/23 02:49:28;;;;;;;7.57;6.90;;;;;;;;;;5096927;28;20208;-80
2023/06/23 02:51:59;;;;;;;8.33;7.53;;;;;;;;;;5102406;28;20234;-80
2023/06/23 02:54:31;;;;;;;8.00;7.30;;;;;;;;;;5099396;28;20199;-80
2023/06/23 02:56:58;;;;;;;10.47;7.17;;;;;;;;;;5113230;28;20199;-80
2023/06/23 02:59:26;;;;;;;8.40;7.43;;;;;;;;;;5095043;28;20204;-80
2023/06/23 03:01:54;;;;;;;7.97;7.20;;;;;;;;;;5104018;28;20249;-80
2023/06/23 03:04:22;;;;;;;10.80;7.83;;;;;;;;;;5097907;28;20204;-80
2023/06/23 03:06:49;;;;;;;7.73;7.03;;;;;;;;;;5112733;28;20693;-80
2023/06/23 03:09:17;;;;;;;9.07;8.17;;;;;;;;;;5106619;28;20207;-81
2023/06/23 03:11:43;;;;;;;9.57;8.33;;;;;;;;;;5104787;28;20215;-79
2023/06/23 03:14:10;;;;;;;9.83;8.20;;;;;;;;;;5106424;28;20196;-80
2023/06/23 03:16:39;;;;;;;9.53;8.60;;;;;;;;;;5092478;28;20211;-80
2023/06/23 03:19:15;;;;;;;10.27;9.27;;;;;;;;;;5112005;28;20253;-80
2023/06/23 03:21:43;;;;;;;8.43;7.73;;;;;;;;;;5109965;28;20199;-80
2023/06/23 03:24:10;;;;;;;9.20;8.50;;;;;;;;;;5102891;28;20224;-79
2023/06/23 03:26:41;;;;;;;8.67;7.77;;;;;;;;;;5092856;28;20200;-81
2023/06/23 03:29:10;;;;;;;8.87;8.07;;;;;;;;;;5103901;28;20671;-81
2023/06/23 03:31:39;;;;;;;8.97;8.17;;;;;;;;;;5105527;28;20199;-81
2023/06/23 03:34:06;;;;;;;8.70;7.83;;;;;;;;;;5100574;28;20739;-81
2023/06/23 03:36:33;;;;;;;9.30;7.87;;;;;;;;;;5096037;28;20204;-82
2023/06/23 03:39:03;;;;;;;9.20;8.40;;;;;;;;;;5092232;28;20216;-82
2023/06/23 03:41:32;;;;;;;8.87;8.03;;;;;;;;;;5108742;28;20209;-82
2023/06/23 03:44:02;;;;;;;9.40;8.50;;;;;;;;;;5111853;28;20223;-82
2023/06/23 03:46:35;;;;;;;9.33;8.53;;;;;;;;;;5112216;28;20199;-82
2023/06/23 03:49:03;;;;;;;9.50;8.57;;;;;;;;;;5112349;28;20199;-82
2023/06/23 03:51:30;;;;;;;8.97;8.17;;;;;;;;;;5106038;28;20231;-81
2023/06/23 03:53:58;;;;;;;8.97;8.07;;;;;;;;;;5091525;28;20204;-81
2023/06/23 03:56:26;;;;;;;10.40;8.70;;;;;;;;;;5105125;28;20204;-82
2023/06/23 03:58:54;;;;;;;10.97;8.77;;;;;;;;;;5091767;28;20653;-81
2023/06/23 04:01:23;;;;;;;9.90;9.10;;;;;;;;;;5091507;28;20250;-82
2023/06/23 04:03:50;;;;;;;9.00;8.20;;;;;;;;;;5104998;28;20227;-81
2023/06/23 04:06:18;;;;;;;9.87;8.87;;;;;;;;;;5099397;28;20203;-79
2023/06/23 04:08:46;;;;;;;10.83;9.93;;;;;;;;;;5111742;28;20200;-79
2023/06/23 04:11:15;;;;;;;9.07;8.17;;;;;;;;;;5103289;28;20204;-79
2023/06/23 04:13:42;;;;;;;10.87;8.00;;;;;;;;;;5093098;28;20196;-79
2023/06/23 04:16:10;;;;;;;8.47;7.67;;;;;;;;;;5111355;28;20203;-79
2023/06/23 04:18:39;;;;;;;8.40;7.57;;;;;;;;;;5097708;28;20205;-79
2023/06/23 04:21:10;;;;;;;8.60;7.80;;;;;;;;;;5102696;28;20290;-79
2023/06/23 04:23:37;;;;;;;9.07;8.17;;;;;;;;;;5091193;28;20228;-79
2023/06/23 04:26:06;;;;;;;11.37;8.37;;;;;;;;;;5101057;28;20203;-79
2023/06/23 04:28:34;;;;;;;9.37;8.37;;;;;;;;;;5094344;28;20196;-79
2023/06/23 04:31:04;;;;;;;10.07;9.07;;;;;;;;;;5091308;28;20203;-79
2023/06/23 04:33:30;;;;;;;10.80;9.63;;;;;;;;;;5104309;28;20632;-79
2023/06/23 04:36:02;;;;;;;9.23;8.43;;;;;;;;;;5102846;28;20203;-79
2023/06/23 04:38:33;;;;;;;10.63;8.03;;;;;;;;;;5110779;28;20202;-79
2023/06/23 04:41:02;;;;;;;8.43;7.73;;;;;;;;;;5111108;28;20591;-79
2023/06/23 04:43:32;;;;;;;8.77;7.90;;;;;;;;;;5097372;28;20701;-79
2023/06/23 04:46:04;;;;;;;10.00;9.07;;;;;;;;;;5097092;28;20219;-79
2023/06/23 04:48:31;;;;;;;9.97;9.00;;;;;;;;;;5099022;28;20706;-79
2023/06/23 04:51:00;;;;;;;9.90;8.90;;;;;;;;;;5096138;28;20293;-79
2023/06/23 04:53:33;;;;;;;8.77;7.97;;;;;;;;;;5090708;28;20231;-79
2023/06/23 04:56:04;;;;;;;9.47;8.67;;;;;;;;;;5090934;28;20230;-79
2023/06/23 04:58:34;;;;;;;9.63;8.73;;;;;;;;;;5090951;28;20235;-79
2023/06/23 05:01:03;;;;;;;23.87;21.87;;;;;;;;;;5091038;28;20558;-79
2023/06/23 05:03:30;;;;;;;20.17;18.27;;;;;;;;;;5090504;28;20612;-79
2023/06/23 05:05:58;;;;;;;18.97;17.30;;;;;;;;;;5109583;28;20202;-79
2023/06/23 05:08:28;;;;;;;13.77;12.57;;;;;;;;;;5110548;28;20666;-79
2023/06/23 05:10:59;;;;;;;14.93;11.73;;;;;;;;;;5110902;28;20260;-79
2023/06/23 05:13:28;;;;;;;11.23;10.33;;;;;;;;;;5097796;28;20282;-79
2023/06/23 05:15:55;;;;;;;11.03;9.93;;;;;;;;;;5097959;28;20199;-79
2023/06/23 05:18:22;;;;;;;12.20;10.73;;;;;;;;;;5096773;28;20212;-79
2023/06/23 05:20:49;;;;;;;12.37;10.00;;;;;;;;;;5098209;28;20196;-79
2023/06/23 05:23:17;;;;;;;11.50;10.40;;;;;;;;;;5110500;28;20227;-79
2023/06/23 05:25:46;;;;;;;10.93;10.03;;;;;;;;;;5104117;28;20627;-79
2023/06/23 05:28:14;;;;;;;11.37;10.33;;;;;;;;;;5093712;28;20302;-79
2023/06/23 05:30:42;;;;;;;11.33;10.33;;;;;;;;;;5107108;28;20209;-79
2023/06/23 05:33:10;;;;;;;9.87;9.00;;;;;;;;;;5108031;28;20253;-79
2023/06/23 05:35:38;;;;;;;8.90;8.07;;;;;;;;;;5094182;28;20204;-78
2023/06/23 05:38:06;;;;;;;11.40;9.20;;;;;;;;;;5110799;28;20206;-78
2023/06/23 05:40:33;;;;;;;10.07;8.67;;;;;;;;;;5105405;28;20200;-79
2023/06/23 05:43:02;;;;;;;8.80;8.00;;;;;;;;;;5107618;28;20204;-79
2023/06/23 05:45:28;;;;;;;8.17;7.47;;;;;;;;;;5104125;28;20222;-78
2023/06/23 05:48:03;;;;;;;9.63;8.63;;;;;;;;;;5111061;28;20635;-78
2023/06/23 05:50:32;;;;;;;9.87;8.97;;;;;;;;;;5093891;28;20643;-78
2023/06/23 05:53:04;;;;;;;9.83;9.03;;;;;;;;;;5112595;28;20200;-79
2023/06/23 05:55:31;;;;;;;9.67;8.67;;;;;;;;;;5101546;28;20204;-79
2023/06/23 05:58:03;;;;;;;11.43;10.20;;;;;;;;;;5113263;28;20204;-79
2023/06/23 06:00:38;;;;;;;9.67;8.87;;;;;;;;;;5100599;28;20754;-79
2023/06/23 06:03:07;;;;;;;10.97;9.23;;;;;;;;;;5094575;28;20206;-78
2023/06/23 06:05:34;;;;;;;10.60;9.13;;;;;;;;;;5106943;28;20203;-78
2023/06/23 06:08:02;;;;;;;12.07;9.53;;;;;;;;;;5103136;28;20203;-78
2023/06/23 06:10:30;;;;;;;10.03;9.00;;;;;;;;;;5111917;28;20290;-78
2023/06/23 06:12:56;;;;;;;10.23;9.33;;;;;;;;;;5093389;28;20590;-78
2023/06/23 06:15:25;;;;;;;9.40;8.70;;;;;;;;;;5097265;28;20249;-78
2023/06/23 06:17:52;;;;;;;10.43;9.43;;;;;;;;;;5113759;28;20195;-78
2023/06/23 06:20:20;;;;;;;9.30;8.50;;;;;;;;;;5100451;28;20268;-78
2023/06/23 06:22:50;;;;;;;11.00;9.07;;;;;;;;;;5102971;28;20257;-78
2023/06/23 06:25:16;;;;;;;9.40;7.97;;;;;;;;;;5096351;28;20230;-78
2023/06/23 06:27:45;;;;;;;9.00;8.10;;;;;;;;;;5113414;28;20597;-79
2023/06/23 06:30:12;;;;;;;9.07;8.27;;;;;;;;;;5113670;28;20199;-79
2023/06/23 06:32:42;;;;;;;8.80;8.00;;;;;;;;;;5102759;28;20197;-78
2023/06/23 06:35:10;;;;;;;8.73;7.93;;;;;;;;;;5110968;28;20199;-78
2023/06/23 06:37:38;;;;;;;10.87;8.03;;;;;;;;;;5113939;28;20211;-78
2023/06/23 06:40:07;;;;;;;10.33;7.80;;;;;;;;;;5108304;28;20196;-78
2023/06/23 06:42:34;;;;;;;8.93;8.13;;;;;;;;;;5092942;28;20215;-78
2023/06/23 06:45:01;;;;;;;9.87;8.23;;;;;;;;;;5098830;28;20978;-78
2023/06/23 06:47:29;;;;;;;8.97;8.20;;;;;;;;;;5112976;28;20286;-78
2023/06/23 06:50:00;;;;;;;9.03;8.13;;;;;;;;;;5106375;28;20197;-78
2023/06/23 06:52:27;;;;;;;7.77;7.07;;;;;;;;;;5106871;28;20208;-78
2023/06/23 06:54:54;;;;;;;9.17;8.37;;;;;;;;;;5106498;28;20647;-78
2023/06/23 06:57:21;;;;;;;8.37;7.67;;;;;;;;;;5093191;28;20294;-78
2023/06/23 06:59:48;;;;;;;8.70;7.85;;;;;;;;;;5106216;28;20211;-78
2023/06/23 07:02:15;;;;;;;7.40;6.80;;;;;;;;;;5106982;28;20196;-78
2023/06/23 07:04:42;;;;;;;7.77;7.17;;;;;;;;;;5113038;28;20231;-78
2023/06/23 07:07:10;;;;;;;7.63;6.97;;;;;;;;;;5112851;28;20204;-78
2023/06/23 07:09:37;;;;;;;8.40;7.10;;;;;;;;;;5104325;28;20204;-78
2023/06/23 07:12:04;;;;;;;9.48;7.03;;;;;;;;;;5107314;28;20269;-78
2023/06/23 07:14:31;;;;;;;10.48;7.93;;;;;;;;;;5112479;28;20261;-78
2023/06/23 07:16:57;;;;;;;8.43;7.73;;;;;;;;;;5110559;28;20212;-78
2023/06/23 07:19:24;;;;;;;7.63;6.93;;;;;;;;;;5100730;28;20655;-78
2023/06/23 07:21:51;;;;;;;8.95;7.82;;;;;;;;;;5096848;28;20204;-78
2023/06/23 07:24:19;;;;;;;11.48;7.85;;;;;;;;;;5100709;28;20219;-78
2023/06/23 07:26:46;;;;;;;8.18;7.40;;;;;;;;;;5098857;28;20200;-78
2023/06/23 07:29:13;;;;;;;9.77;8.82;;;;;;;;;;5103175;28;20204;-78
2023/06/23 07:31:40;;;;;;;12.18;10.98;;;;;;;;;;5094398;28;20751;-78
2023/06/23 07:34:06;;;;;;;11.27;10.23;;;;;;;;;;5112208;28;20215;-78
2023/06/23 07:36:33;;;;;;;8.63;7.93;;;;;;;;;;5109089;28;20220;-78
2023/06/23 07:39:00;;;;;;;9.18;8.27;;;;;;;;;;5092098;28;20196;-77
2023/06/23 07:41:28;;;;;;;13.85;8.15;;;;;;;;;;5109058;28;20574;-78
2023/06/23 07:43:55;;;;;;;8.77;7.93;;;;;;;;;;5101374;28;20227;-78
2023/06/23 07:46:22;;;;;;;7.72;6.88;;;;;;;;;;5095486;28;20629;-78
2023/06/23 07:48:48;;;;;;;8.52;7.70;;;;;;;;;;5100869;28;20200;-78
2023/06/23 07:51:15;;;;;;;9.73;8.80;;;;;;;;;;5095378;28;20227;-78
2023/06/23 07:53:42;;;;;;;9.88;8.05;;;;;;;;;;5111685;28;20199;-78
2023/06/23 07:56:11;;;;;;;9.10;7.70;;;;;;;;;;5107809;28;20585;-78
2023/06/23 07:58:39;;;;;;;12.80;9.45;;;;;;;;;;5091610;28;20307;-77
2023/06/23 08:01:06;;;;;;;14.00;10.25;;;;;;;;;;5110171;28;20198;-78
2023/06/23 08:03:34;;;;;;;8.95;8.10;;;;;;;;;;5111632;28;20298;-78
2023/06/23 08:06:00;;;;;;;9.52;8.57;;;;;;;;;;5111747;28;20203;-78
2023/06/23 08:08:27;;;;;;;9.93;8.98;;;;;;;;;;5111517;28;20754;-78
2023/06/23 08:10:54;;;;;;;13.73;8.07;;;;;;;;;;5105222;28;20208;-78
2023/06/23 08:13:21;;;;;;;12.13;7.90;;;;;;;;;;5103744;28;20203;-78
2023/06/23 08:15:49;;;;;;;8.82;8.13;;;;;;;;;;5098051;28;20249;-78
2023/06/23 08:18:15;;;;;;;8.70;7.95;;;;;;;;;;5097794;28;20200;-78
2023/06/23 08:20:42;;;;;;;10.73;9.63;;;;;;;;;;5098000;28;20204;-78
2023/06/23 08:23:09;;;;;;;10.32;8.32;;;;;;;;;;5097589;28;20212;-78
2023/06/23 08:25:36;;;;;;;9.82;8.82;;;;;;;;;;5092327;28;20223;-77
2023/06/23 08:28:04;;;;;;;9.07;7.97;;;;;;;;;;5091054;28;20193;-77
2023/06/23 08:30:31;;;;;;;10.07;9.07;;;;;;;;;;5111291;28;20289;-77
2023/06/23 08:32:59;;;;;;;8.65;7.82;;;;;;;;;;5097802;28;20283;-78
2023/06/23 08:35:27;;;;;;;8.98;8.07;;;;;;;;;;5091063;28;20200;-77
2023/06/23 08:37:54;;;;;;;9.43;7.70;;;;;;;;;;5104409;28;20689;-78
2023/06/23 08:40:21;;;;;;;8.98;8.07;;;;;;;;;;5104226;28;20200;-78
2023/06/23 08:42:48;;;;;;;9.07;8.18;;;;;;;;;;5091272;28;20205;-78
2023/06/23 08:45:16;;;;;;;8.93;8.05;;;;;;;;;;5103649;28;20277;-78
2023/06/23 08:47:48;;;;;;;8.48;7.32;;;;;;;;;;5104229;28;20203;-78
2023/06/23 08:50:16;;;;;;;8.60;7.50;;;;;;;;;;5091039;28;20315;-78
2023/06/23 08:52:43;;;;;;;8.43;7.53;;;;;;;;;;5106171;28;20723;-78
2023/06/23 08:55:11;;;;;;;9.90;8.30;;;;;;;;;;5101975;28;20250;-77
2023/06/23 08:57:38;;;;;;;8.77;7.95;;;;;;;;;;5104449;28;20200;-78
2023/06/23 09:00:07;;;;;;;7.93;7.25;;;;;;;;;;5090883;28;20283;-78
2023/06/23 09:02:34;;;;;;;10.18;7.72;;;;;;;;;;5106959;28;20768;-77
2023/06/23 09:05:01;;;;;;;9.98;8.82;;;;;;;;;;5105350;28;20288;-77
2023/06/23 09:07:29;;;;;;;9.60;8.43;;;;;;;;;;5101158;28;20203;-78
2023/06/23 09:09:56;;;;;;;8.60;7.75;;;;;;;;;;5115305;28;20649;-78
2023/06/23 09:12:24;;;;;;;9.35;8.45;;;;;;;;;;5110756;28;20277;-77
2023/06/23 09:14:51;;;;;;;9.68;8.75;;;;;;;;;;5094863;28;20294;-78
2023/06/23 09:17:18;;;;;;;9.18;8.25;;;;;;;;;;5112859;28;20632;-78
2023/06/23 09:19:49;;;;;;;8.30;7.60;;;;;;;;;;5114767;28;20200;-77
2023/06/23 09:22:18;;;;;;;10.88;7.90;;;;;;;;;;5114763;28;20196;-77
2023/06/23 09:24:47;;;;;;;8.75;7.85;;;;;;;;;;5102533;28;20220;-78
2023/06/23 09:27:14;;;;;;;9.88;7.70;;;;;;;;;;5107866;28;20789;-78
2023/06/23 09:29:41;;;;;;;8.07;7.38;;;;;;;;;;5094529;28;20200;-78
2023/06/23 09:32:09;;;;;;;10.27;9.18;;;;;;;;;;5107674;28;20200;-77
2023/06/23 09:34:37;;;;;;;8.68;7.85;;;;;;;;;;5094233;28;20230;-78
2023/06/23 09:37:09;;;;;;;10.73;8.38;;;;;;;;;;5093883;28;20682;-78
2023/06/23 09:39:36;;;;;;;7.95;7.15;;;;;;;;;;5109112;28;20258;-78
2023/06/23 09:42:08;;;;;;;10.75;9.68;;;;;;;;;;5106451;28;20196;-78
2023/06/23 09:44:40;;;;;;;9.10;8.30;;;;;;;;;;5107315;28;20697;-78
2023/06/23 09:47:08;;;;;;;8.43;7.82;;;;;;;;;;5104401;28;20207;-78
2023/06/23 09:49:39;;;;;;;9.80;8.80;;;;;;;;;;5114151;28;20203;-78
2023/06/23 09:52:08;;;;;;;11.48;8.23;;;;;;;;;;5114260;28;20235;-77
2023/06/23 09:54:36;;;;;;;10.07;8.90;;;;;;;;;;5095672;28;20743;-78
2023/06/23 09:57:07;;;;;;;8.77;7.88;;;;;;;;;;5093278;28;20196;-77
2023/06/23 09:59:34;;;;;;;8.85;8.07;;;;;;;;;;5107271;28;20283;-77
2023/06/23 10:02:01;;;;;;;9.45;8.63;;;;;;;;;;5106882;28;20239;-78
2023/06/23 10:04:29;;;;;;;11.02;9.07;;;;;;;;;;5100393;28;20279;-78
2023/06/23 10:06:56;;;;;;;8.43;7.72;;;;;;;;;;5100261;28;20321;-78
2023/06/23 10:09:24;;;;;;;8.73;8.05;;;;;;;;;;5093364;28;20211;-78
2023/06/23 10:11:51;;;;;;;8.27;7.57;;;;;;;;;;5107279;28;20203;-78
2023/06/23 10:14:20;;;;;;;8.00;7.30;;;;;;;;;;5106137;28;20625;-78
2023/06/23 10:16:48;;;;;;;9.52;7.88;;;;;;;;;;5107757;28;20203;-78
2023/06/23 10:19:17;;;;;;;9.13;8.23;;;;;;;;;;5106239;28;20206;-77
2023/06/23 10:21:44;;;;;;;7.75;7.05;;;;;;;;;;5093188;28;20238;-78
2023/06/23 10:24:14;;;;;;;8.00;7.20;;;;;;;;;;5093677;28;20204;-78
2023/06/23 10:26:41;;;;;;;8.82;7.72;;;;;;;;;;5106666;28;20199;-78
2023/06/23 10:29:10;;;;;;;7.53;6.93;;;;;;;;;;5093203;28;20197;-78
2023/06/23 10:31:38;;;;;;;9.50;8.05;;;;;;;;;;5093603;28;20563;-77
2023/06/23 10:34:06;;;;;;;7.97;7.28;;;;;;;;;;5102251;28;20751;-78
2023/06/23 10:36:37;;;;;;;8.15;7.45;;;;;;;;;;5110177;28;20207;-77
2023/06/23 10:39:04;;;;;;;8.55;7.75;;;;;;;;;;5103449;28;20214;-78
2023/06/23 10:41:34;;;;;;;7.95;7.30;;;;;;;;;;5099684;28;20218;-78
2023/06/23 10:44:03;;;;;;;9.38;7.00;;;;;;;;;;5102535;28;20204;-78
2023/06/23 10:46:30;;;;;;;8.10;7.32;;;;;;;;;;5106159;28;20787;-77
2023/06/23 10:48:59;;;;;;;8.65;7.53;;;;;;;;;;5104236;28;20284;-77
2023/06/23 10:51:26;;;;;;;7.70;7.00;;;;;;;;;;5099355;28;20643;-78
2023/06/23 10:54:00;;;;;;;7.38;6.68;;;;;;;;;;5113339;28;20210;-77
2023/06/23 10:56:31;;;;;;;8.85;7.90;;;;;;;;;;5106100;28;20598;-78
2023/06/23 10:58:58;;;;;;;9.25;7.70;;;;;;;;;;5092995;28;20204;-78
2023/06/23 11:01:26;;;;;;;10.73;7.43;;;;;;;;;;5112741;28;20208;-78
2023/06/23 11:03:53;;;;;;;7.53;6.82;;;;;;;;;;5112532;28;20252;-78
2023/06/23 11:06:28;;;;;;;8.25;7.65;;;;;;;;;;5105236;28;20220;-78
2023/06/23 11:08:59;;;;;;;8.32;7.57;;;;;;;;;;5106235;28;20195;-78
2023/06/23 11:11:33;;;;;;;7.70;7.20;;;;;;;;;;5092286;28;20200;-78
2023/06/23 11:14:00;;;;;;;5.97;5.47;;;;;;;;;;5096479;28;20645;-78
2023/06/23 11:16:29;;;;;;;7.55;6.85;;;;;;;;;;5112340;28;20199;-77
2023/06/23 11:18:57;;;;;;;7.90;7.18;;;;;;;;;;5098781;28;20191;-78
2023/06/23 11:21:33;;;;;;;8.05;6.93;;;;;;;;;;5112914;28;20207;-77
2023/06/23 11:24:15;;;;;;;7.97;7.38;;;;;;;;;;5091763;28;20674;-77
2023/06/23 11:26:51;;;;;;;7.57;6.97;;;;;;;;;;5105142;28;20295;-77
2023/06/23 11:29:20;;;;;;;7.30;6.70;;;;;;;;;;5101476;28;20235;-78
2023/06/23 11:32:06;;;;;;;7.00;6.40;;;;;;;;;;5094822;28;20215;-78
2023/06/23 11:34:51;;;;;;;6.93;6.32;;;;;;;;;;5104616;28;20666;-78
2023/06/23 11:37:19;;;;;;;7.93;6.65;;;;;;;;;;5100074;28;20638;-78
2023/06/23 11:39:48;;;;;;;8.95;6.90;;;;;;;;;;5096768;28;20211;-78
2023/06/23 11:42:15;;;;;;;7.88;7.00;;;;;;;;;;5091804;28;20975;-77
2023/06/23 11:44:42;;;;;;;7.80;7.15;;;;;;;;;;5107766;28;20203;-77
2023/06/23 11:47:12;;;;;;;7.25;6.75;;;;;;;;;;5102777;28;20755;-77
2023/06/23 11:49:39;;;;;;;7.80;7.20;;;;;;;;;;5094333;28;20208;-78
2023/06/23 11:52:09;;;;;;;8.30;7.60;;;;;;;;;;5111755;28;20224;-78
2023/06/23 11:54:38;;;;;;;8.18;6.53;;;;;;;;;;5112087;28;20199;-77
2023/06/23 11:57:07;;;;;;;7.88;6.68;;;;;;;;;;5111944;28;20206;-78
2023/06/23 11:59:35;;;;;;;7.18;6.65;;;;;;;;;;5098049;28;20278;-77
2023/06/23 12:02:02;;;;;;;8.15;7.45;;;;;;;;;;5111501;28;20290;-77
2023/06/23 12:04:29;;;;;;;7.65;6.95;;;;;;;;;;5098063;28;20588;-77
2023/06/23 12:07:01;;;;;;;7.80;7.10;;;;;;;;;;5111559;28;20283;-77
2023/06/23 12:09:28;;;;;;;7.75;7.15;;;;;;;;;;5097657;28;20204;-77
2023/06/23 12:11:56;;;;;;;6.95;6.35;;;;;;;;;;5098365;28;20204;-78
2023/06/23 12:14:30;;;;;;;8.00;7.28;;;;;;;;;;5098153;28;20214;-78
2023/06/23 12:17:10;;;;;;;8.02;7.22;;;;;;;;;;5097632;28;20205;-78
2023/06/23 12:19:38;;;;;;;7.22;6.63;;;;;;;;;;5101616;28;20196;-77
2023/06/23 12:22:14;;;;;;;7.32;6.70;;;;;;;;;;5104390;28;20274;-78
2023/06/23 12:24:41;;;;;;;8.20;7.47;;;;;;;;;;5091084;28;20640;-77
2023/06/23 12:27:12;;;;;;;7.50;6.88;;;;;;;;;;5105079;28;20220;-77
2023/06/23 12:29:39;;;;;;;7.25;6.57;;;;;;;;;;5091223;28;20211;-77
2023/06/23 12:32:07;;;;;;;7.60;6.47;;;;;;;;;;5104395;28;20288;-77
2023/06/23 12:34:34;;;;;;;7.15;6.65;;;;;;;;;;5091379;28;20200;-77
2023/06/23 12:37:05;;;;;;;7.13;6.45;;;;;;;;;;5104337;28;20257;-77
2023/06/23 12:39:32;;;;;;;7.05;6.45;;;;;;;;;;5104524;28;20620;-78
2023/06/23 12:42:00;;;;;;;7.30;6.78;;;;;;;;;;5090826;28;20211;-77
2023/06/23 12:44:28;;;;;;;7.10;6.53;;;;;;;;;;5104106;28;20199;-77
2023/06/23 12:46:57;;;;;;;7.80;7.13;;;;;;;;;;5098557;28;20227;-77
2023/06/23 12:49:32;;;;;;;7.72;6.68;;;;;;;;;;5095810;28;20204;-77
2023/06/23 12:52:00;;;;;;;7.53;6.93;;;;;;;;;;5100338;28;20222;-77
2023/06/23 12:54:29;;;;;;;6.72;6.13;;;;;;;;;;5093950;28;20635;-78
2023/06/23 12:56:57;;;;;;;6.82;6.22;;;;;;;;;;5101666;28;20268;-78
2023/06/23 12:59:25;;;;;;;7.03;6.40;;;;;;;;;;5110704;28;20642;-77
2023/06/23 13:01:53;;;;;;;6.88;6.30;;;;;;;;;;5111026;28;20199;-78
2023/06/23 13:04:21;;;;;;;7.32;6.68;;;;;;;;;;5097287;28;20260;-77
2023/06/23 13:06:48;;;;;;;6.93;6.32;;;;;;;;;;5098502;28;20231;-78
2023/06/23 13:09:15;;;;;;;8.18;5.85;;;;;;;;;;5096081;28;20200;-78
2023/06/23 13:11:42;;;;;;;7.20;6.53;;;;;;;;;;5110995;28;20202;-77
2023/06/23 13:14:08;;;;;;;10.05;9.15;;;;;;;;;;5091376;28;20250;-77
2023/06/23 13:16:37;;;;;;;7.60;7.00;;;;;;;;;;5102928;28;20826;-77
2023/06/23 13:19:05;;;;;;;7.35;6.75;;;;;;;;;;5097195;28;20686;-77
2023/06/23 13:21:32;;;;;;;8.18;7.32;;;;;;;;;;5098159;28;20265;-77
2023/06/23 13:23:58;;;;;;;6.78;6.20;;;;;;;;;;5104194;28;20249;-78
2023/06/23 13:26:25;;;;;;;7.68;6.88;;;;;;;;;;5102847;28;20701;-78
2023/06/23 13:28:52;;;;;;;7.60;6.80;;;;;;;;;;5104637;28;20196;-78
2023/06/23 13:31:18;;;;;;;7.60;7.00;;;;;;;;;;5103474;28;20674;-78
2023/06/23 13:33:45;;;;;;;6.97;6.50;;;;;;;;;;5110947;28;20204;-77
2023/06/23 13:36:13;;;;;;;7.22;6.70;;;;;;;;;;5110455;28;20700;-77
2023/06/23 13:38:41;;;;;;;6.63;6.07;;;;;;;;;;5090353;28;20269;-77
2023/06/23 13:41:10;;;;;;;6.55;6.05;;;;;;;;;;5104140;28;20264;-77
2023/06/23 13:43:36;;;;;;;7.35;6.60;;;;;;;;;;5098085;28;20227;-77
2023/06/23 13:46:03;;;;;;;7.63;6.97;;;;;;;;;;5109301;28;20227;-77
2023/06/23 13:48:30;;;;;;;6.95;6.35;;;;;;;;;;5098877;28;20200;-77
2023/06/23 13:50:58;;;;;;;6.60;6.00;;;;;;;;;;5100540;28;20231;-77
2023/06/23 13:53:26;;;;;;;7.10;6.50;;;;;;;;;;5113762;28;20256;-77
2023/06/23 13:55:54;;;;;;;7.00;6.35;;;;;;;;;;5112832;28;20200;-77
2023/06/23 13:58:21;;;;;;;24.55;7.68;;;;;;;;;;5102848;28;20211;-78
2023/06/23 14:00:48;;;;;;;7.38;6.78;;;;;;;;;;5100581;28;20202;-77
2023/06/23 14:03:14;;;;;;;7.47;6.70;;;;;;;;;;5105226;28;20215;-77
2023/06/23 14:05:41;;;;;;;8.35;6.70;;;;;;;;;;5095813;28;20748;-77
2023/06/23 14:08:08;;;;;;;7.20;6.45;;;;;;;;;;5113824;28;20192;-77
2023/06/23 14:10:36;;;;;;;6.63;6.13;;;;;;;;;;5114276;28;20206;-77
2023/06/23 14:13:03;;;;;;;7.88;7.18;;;;;;;;;;5113383;28;20199;-77
2023/06/23 14:15:30;;;;;;;6.53;5.88;;;;;;;;;;5110683;28;20197;-77
2023/06/23 14:17:57;;;;;;;8.23;6.50;;;;;;;;;;5093692;28;20200;-77
2023/06/23 14:20:24;;;;;;;7.35;6.85;;;;;;;;;;5107335;28;20204;-77
2023/06/23 14:22:52;;;;;;;7.22;6.72;;;;;;;;;;5103475;28;20282;-78
2023/06/23 14:25:18;;;;;;;6.75;6.15;;;;;;;;;;5099004;28;20214;-77
2023/06/23 14:27:47;;;;;;;7.00;6.40;;;;;;;;;;5113396;28;20659;-77
2023/06/23 14:30:14;;;;;;;7.22;6.72;;;;;;;;;;5109261;28;20211;-77
2023/06/23 14:32:48;;;;;;;7.10;6.60;;;;;;;;;;5092609;28;20204;-77
2023/06/23 14:35:15;;;;;;;6.72;6.13;;;;;;;;;;5112077;28;20204;-77
2023/06/23 14:37:42;;;;;;;6.78;6.07;;;;;;;;;;5113488;28;20199;-77
2023/06/23 14:40:12;;;;;;;7.43;6.68;;;;;;;;;;5099378;28;20195;-77
2023/06/23 14:42:41;;;;;;;7.72;6.38;;;;;;;;;;5100091;28;20563;-77
2023/06/23 14:45:12;;;;;;;7.43;6.82;;;;;;;;;;5093253;28;20204;-77
2023/06/23 14:47:40;;;;;;;8.13;7.03;;;;;;;;;;5106519;28;20227;-77